Accueil
METAR-TAF:

METAR-TAF

Aéroports :

Aéroport de Bastia-Poretta

Bastia, France

latitude: 42-33N, longitude: 009-29E, altitude: 8 m

Observation

Le bulletin a été fait il y a 20 minutes, à 19:30 UTC
Vent 2 kt de sud/sud-ouest
Température 18°C
Humidité 94%
Pression 1018 hPa
Visibilité: 5000 m
Quelques nuages à une hauteur de 5000 ft
brume

METAR: LFKB 191930Z AUTO 21002KT 5000 BR FEW050 18/17 Q1018 NOSIG

Heure: 21:50 (19:50 UTC)

Prévision

Le bulletin a été fait il y a 5 heures et 50 minutes, à 14:00 UTC
Prévision valable du 19 à 15 UTC au 20 à 15 UTC
Vent 6 kt de est/sud-est
Visibilité 10 km ou plus
Nuages épars à une hauteur de 2000 ft
Evoluant progressivement
du 19 à 18 UTC au 19 à 20 UTC
Vent 4 kt de ouest/sud-ouest
Evoluant progressivement
du 20 à 09 UTC au 20 à 10 UTC
Vent 8 kt de nord/nord-est

TAF: LFKB 191400Z 1915/2015 12006KT 9999 SCT020 TX23/2012Z TN14/2004Z BECMG 1918/1920 24004KT BECMG 2009/2010 02008KT

Observations et prévisions météorologiques de plus de 4000 aéroports (messages METAR et TAF).

Les stations disponibles sont représentées par des disques jaunes et rouges sur la carte.

Passer la souris dessus pour voir le nom de la station.

Cliquer dessus pour voir les observations et prévisions météorologiques.

Pour changer de carte: cliquez sur les boutons verts avec une croix noire pour zoomer, sur le bouton vert avec un tiret pour effectuer un zoom arrière, ou sur les flèches vertes pour les cartes adjacentes.


METAR-TAF: